Time,TemperatureF,DewpointF,PressureIn,WindDirection,WindDirectionDegrees,WindSpeedMPH,WindSpeedGustMPH,Humidity,HourlyPrecipIn,Conditions,Clouds,dailyrainin,SoftwareType,DateUTC
2013-01-26 00:01:00,20.7,5.7,32.04,South,186,0.0,0.0,52,0.00,NA,NA,-99.99,wxupload 3.4,2013-01-26 05:01:00,
2013-01-26 00:06:00,20.7,5.7,32.04,South,186,0.0,0.0,52,0.00,NA,NA,-99.99,wxupload 3.4,2013-01-26 05:06:00,
2013-01-26 00:12:00,20.7,6.1,32.04,South,186,0.0,0.0,53,0.00,NA,NA,-99.99,wxupload 3.4,2013-01-26 05:12:00,
2013-01-26 00:18:00,20.8,6.3,32.04,South,186,0.0,0.0,53,0.00,NA,NA,-99.99,wxupload 3.4,2013-01-26 05:18:00,
2013-01-26 00:25:00,20.8,6.3,32.04,South,186,0.0,0.0,53,0.00,NA,NA,-99.99,wxupload 3.4,2013-01-26 05:25:00,
2013-01-26 00:26:00,20.8,6.3,32.04,South,186,0.0,0.0,53,0.00,NA,NA,-99.99,wxupload 3.4,2013-01-26 05:26:00,
2013-01-26 00:33:00,20.8,6.3,32.04,South,185,0.0,0.0,53,0.00,NA,NA,-99.99,wxupload 3.4,2013-01-26 05:33:00,
2013-01-26 00:38:00,20.8,6.3,32.04,South,185,0.0,0.0,53,0.00,NA,NA,-99.99,wxupload 3.4,2013-01-26 05:38:00,
2013-01-26 00:44:00,20.8,6.3,32.04,South,186,0.0,0.0,53,0.00,NA,NA,-99.99,wxupload 3.4,2013-01-26 05:44:00,
2013-01-26 00:50:00,20.8,6.3,32.04,South,186,0.0,0.0,53,0.00,NA,NA,-99.99,wxupload 3.4,2013-01-26 05:50:00,
2013-01-26 00:57:00,20.7,6.1,32.04,South,185,0.0,0.0,53,0.00,NA,NA,-99.99,wxupload 3.4,2013-01-26 05:57:00,
2013-01-26 01:02:00,20.3,5.8,32.04,South,185,0.0,0.0,53,0.00,NA,NA,-99.99,wxupload 3.4,2013-01-26 06:02:00,
2013-01-26 01:08:00,19.9,5.0,32.04,South,186,0.0,0.0,52,0.00,NA,NA,-99.99,wxupload 3.4,2013-01-26 06:08:00,
2013-01-26 01:14:00,19.4,4.9,32.04,South,185,0.0,0.0,53,0.00,NA,NA,-99.99,wxupload 3.4,2013-01-26 06:14:00,
2013-01-26 01:21:00,19.0,4.6,32.04,South,186,0.0,0.0,53,0.00,NA,NA,-99.99,wxupload 3.4,2013-01-26 06:21:00,
2013-01-26 01:26:00,19.0,4.6,32.04,South,185,0.0,0.0,53,0.00,NA,NA,-99.99,wxupload 3.4,2013-01-26 06:26:00,
2013-01-26 01:32:00,18.7,3.8,32.04,South,186,0.0,0.0,52,0.00,NA,NA,-99.99,wxupload 3.4,2013-01-26 06:32:00,
2013-01-26 01:38:00,18.1,3.3,32.04,South,185,0.0,0.0,52,0.00,NA,NA,-99.99,wxupload 3.4,2013-01-26 06:38:00,
2013-01-26 01:45:00,17.6,2.8,32.04,South,185,0.0,0.0,52,0.00,NA,NA,-99.99,wxupload 3.4,2013-01-26 06:45:00,
2013-01-26 01:50:00,16.9,2.1,32.04,South,186,0.0,0.0,52,0.00,NA,NA,-99.99,wxupload 3.4,2013-01-26 06:50:00,
2013-01-26 01:56:00,16.5,1.8,32.04,South,186,0.0,0.0,52,0.00,NA,NA,-99.99,wxupload 3.4,2013-01-26 06:56:00,
2013-01-26 02:02:00,16.2,1.0,32.04,South,186,0.0,0.0,51,0.00,NA,NA,-99.99,wxupload 3.4,2013-01-26 07:02:00,
2013-01-26 02:09:00,16.5,1.8,32.04,South,186,0.0,0.0,52,0.00,NA,NA,-99.99,wxupload 3.4,2013-01-26 07:09:00,
2013-01-26 02:14:00,16.9,2.5,32.04,South,186,0.0,0.0,53,0.00,NA,NA,-99.99,wxupload 3.4,2013-01-26 07:14:00,
2013-01-26 02:20:00,17.1,2.7,32.04,South,186,0.0,0.0,53,0.00,NA,NA,-99.99,wxupload 3.4,2013-01-26 07:20:00,
2013-01-26 02:26:00,17.4,3.0,32.04,South,186,0.0,0.0,53,0.00,NA,NA,-99.99,wxupload 3.4,2013-01-26 07:26:00,
2013-01-26 02:33:00,17.4,3.0,32.07,South,186,0.0,0.0,53,0.00,NA,NA,-99.99,wxupload 3.4,2013-01-26 07:33:00,
2013-01-26 02:38:00,17.4,3.0,32.07,South,186,0.0,0.0,53,0.00,NA,NA,-99.99,wxupload 3.4,2013-01-26 07:38:00,
2013-01-26 02:44:00,17.2,2.9,32.07,South,186,0.0,0.0,53,0.00,NA,NA,-99.99,wxupload 3.4,2013-01-26 07:44:00,
2013-01-26 02:50:00,17.1,2.7,32.07,South,186,0.0,0.0,53,0.00,NA,NA,-99.99,wxupload 3.4,2013-01-26 07:50:00,
2013-01-26 02:57:00,17.1,2.7,32.07,South,186,0.0,0.0,53,0.00,NA,NA,-99.99,wxupload 3.4,2013-01-26 07:57:00,
2013-01-26 03:02:00,17.2,2.9,32.07,South,186,0.0,0.0,53,0.00,NA,NA,-99.99,wxupload 3.4,2013-01-26 08:02:00,
2013-01-26 03:08:00,17.1,2.7,32.07,South,186,0.0,0.0,53,0.00,NA,NA,-99.99,wxupload 3.4,2013-01-26 08:08:00,
2013-01-26 03:14:00,17.1,2.7,32.07,South,186,0.0,0.0,53,0.00,NA,NA,-99.99,wxupload 3.4,2013-01-26 08:14:00,
2013-01-26 03:21:00,16.9,2.5,32.07,South,185,0.0,0.0,53,0.00,NA,NA,-99.99,wxupload 3.4,2013-01-26 08:21:00,
2013-01-26 03:26:00,16.9,2.5,32.07,South,186,0.0,0.0,53,0.00,NA,NA,-99.99,wxupload 3.4,2013-01-26 08:26:00,
2013-01-26 03:32:00,16.9,2.9,32.07,South,186,0.0,0.0,54,0.00,NA,NA,-99.99,wxupload 3.4,2013-01-26 08:32:00,
2013-01-26 03:38:00,16.9,2.5,32.07,South,186,0.0,0.0,53,0.00,NA,NA,-99.99,wxupload 3.4,2013-01-26 08:38:00,
2013-01-26 03:45:00,17.1,3.1,32.07,South,185,0.0,0.0,54,0.00,NA,NA,-99.99,wxupload 3.4,2013-01-26 08:45:00,
2013-01-26 03:50:00,17.2,3.3,32.07,South,186,0.0,0.0,54,0.00,NA,NA,-99.99,wxupload 3.4,2013-01-26 08:50:00,
2013-01-26 03:56:00,17.4,3.5,32.07,South,185,0.0,0.0,54,0.00,NA,NA,-99.99,wxupload 3.4,2013-01-26 08:56:00,
2013-01-26 04:02:00,17.6,3.6,32.07,South,186,0.0,0.0,54,0.00,NA,NA,-99.99,wxupload 3.4,2013-01-26 09:02:00,
2013-01-26 04:09:00,17.6,3.6,32.07,South,186,0.0,0.0,54,0.00,NA,NA,-99.99,wxupload 3.4,2013-01-26 09:09:00,
2013-01-26 04:14:00,17.4,3.5,32.07,South,186,0.0,0.0,54,0.00,NA,NA,-99.99,wxupload 3.4,2013-01-26 09:14:00,
2013-01-26 04:20:00,17.6,3.6,32.10,South,186,0.0,0.0,54,0.00,NA,NA,-99.99,wxupload 3.4,2013-01-26 09:20:00,
2013-01-26 04:26:00,17.8,3.8,32.10,South,185,0.0,0.0,54,0.00,NA,NA,-99.99,wxupload 3.4,2013-01-26 09:26:00,
2013-01-26 04:33:00,17.8,3.8,32.10,South,186,0.0,0.0,54,0.00,NA,NA,-99.99,wxupload 3.4,2013-01-26 09:33:00,
2013-01-26 04:38:00,17.8,3.8,32.10,South,186,0.0,0.0,54,0.00,NA,NA,-99.99,wxupload 3.4,2013-01-26 09:38:00,
2013-01-26 04:44:00,17.8,3.8,32.10,South,186,0.0,0.0,54,0.00,NA,NA,-99.99,wxupload 3.4,2013-01-26 09:44:00,
2013-01-26 04:50:00,18.0,4.0,32.10,South,185,0.0,0.0,54,0.00,NA,NA,-99.99,wxupload 3.4,2013-01-26 09:50:00,
2013-01-26 04:57:00,17.8,3.8,32.10,South,186,0.0,0.0,54,0.00,NA,NA,-99.99,wxupload 3.4,2013-01-26 09:57:00,
2013-01-26 05:02:00,18.1,4.1,32.10,South,185,0.0,0.0,54,0.00,NA,NA,-99.99,wxupload 3.4,2013-01-26 10:02:00,
2013-01-26 05:08:00,18.3,4.3,32.10,South,186,0.0,0.0,54,0.00,NA,NA,-99.99,wxupload 3.4,2013-01-26 10:08:00,
2013-01-26 05:14:00,18.3,4.3,32.10,South,185,0.0,0.0,54,0.00,NA,NA,-99.99,wxupload 3.4,2013-01-26 10:14:00,
2013-01-26 05:21:00,18.5,4.5,32.10,South,185,0.0,0.0,54,0.00,NA,NA,-99.99,wxupload 3.4,2013-01-26 10:21:00,
2013-01-26 05:26:00,18.5,4.5,32.10,South,186,0.0,0.0,54,0.00,NA,NA,-99.99,wxupload 3.4,2013-01-26 10:26:00,
2013-01-26 05:32:00,18.5,4.9,32.10,South,186,0.0,0.0,55,0.00,NA,NA,-99.99,wxupload 3.4,2013-01-26 10:32:00,
2013-01-26 05:38:00,18.7,5.0,32.10,South,186,0.0,0.0,55,0.00,NA,NA,-99.99,wxupload 3.4,2013-01-26 10:38:00,
2013-01-26 05:44:00,18.7,5.0,32.10,South,185,0.0,0.0,55,0.00,NA,NA,-99.99,wxupload 3.4,2013-01-26 10:44:00,
2013-01-26 05:51:00,18.7,5.0,32.10,South,186,0.0,0.0,55,0.00,NA,NA,-99.99,wxupload 3.4,2013-01-26 10:51:00,
2013-01-26 05:56:00,18.7,5.0,32.10,South,185,0.0,0.0,55,0.00,NA,NA,-99.99,wxupload 3.4,2013-01-26 10:56:00,
2013-01-26 06:02:00,18.7,5.0,32.10,South,186,0.0,0.0,55,0.00,NA,NA,-99.99,wxupload 3.4,2013-01-26 11:02:00,
2013-01-26 06:08:00,18.5,4.9,32.10,South,186,0.0,0.0,55,0.00,NA,NA,-99.99,wxupload 3.4,2013-01-26 11:08:00,
2013-01-26 06:15:00,18.5,4.9,32.10,South,185,0.0,0.0,55,0.00,NA,NA,-99.99,wxupload 3.4,2013-01-26 11:15:00,
2013-01-26 06:20:00,18.5,4.9,32.10,South,185,0.0,0.0,55,0.00,NA,NA,-99.99,wxupload 3.4,2013-01-26 11:20:00,
2013-01-26 06:26:00,18.5,4.9,32.10,South,185,0.0,0.0,55,0.00,NA,NA,-99.99,wxupload 3.4,2013-01-26 11:26:00,
2013-01-26 06:32:00,18.5,4.9,32.13,SSE,148,0.0,0.0,55,0.00,NA,NA,-99.99,wxupload 3.4,2013-01-26 11:32:00,
2013-01-26 06:39:00,18.5,4.9,32.13,SSE,148,0.0,0.0,55,0.00,NA,NA,-99.99,wxupload 3.4,2013-01-26 11:39:00,
2013-01-26 06:44:00,18.5,4.9,32.13,SSE,148,0.0,0.0,55,0.00,NA,NA,-99.99,wxupload 3.4,2013-01-26 11:44:00,
2013-01-26 06:50:00,18.5,4.9,32.13,SSE,148,0.0,0.0,55,0.00,NA,NA,-99.99,wxupload 3.4,2013-01-26 11:50:00,
2013-01-26 06:56:00,18.5,4.9,32.13,SSE,148,0.0,0.0,55,0.00,NA,NA,-99.99,wxupload 3.4,2013-01-26 11:56:00,
2013-01-26 07:03:00,18.7,5.0,32.13,SSE,148,0.0,0.0,55,0.00,NA,NA,-99.99,wxupload 3.4,2013-01-26 12:03:00,
2013-01-26 07:08:00,18.9,5.2,32.13,WNW,299,0.0,0.0,55,0.00,NA,NA,-99.99,wxupload 3.4,2013-01-26 12:08:00,
2013-01-26 07:14:00,19.0,5.4,32.13,SSE,153,0.0,0.0,55,0.00,NA,NA,-99.99,wxupload 3.4,2013-01-26 12:14:00,
2013-01-26 07:20:00,19.2,6.0,32.13,SSE,153,0.0,0.0,56,0.00,NA,NA,-99.99,wxupload 3.4,2013-01-26 12:20:00,
2013-01-26 07:27:00,19.2,6.0,32.13,SSE,153,0.0,0.0,56,0.00,NA,NA,-99.99,wxupload 3.4,2013-01-26 12:27:00,
2013-01-26 07:33:00,19.2,6.0,32.13,SSE,153,0.0,0.0,56,0.00,NA,NA,-99.99,wxupload 3.4,2013-01-26 12:33:00,
2013-01-26 07:38:00,19.4,6.1,32.13,SSE,153,0.0,0.0,56,0.00,NA,NA,-99.99,wxupload 3.4,2013-01-26 12:38:00,
2013-01-26 07:44:00,19.4,6.1,32.13,SSE,153,0.0,0.0,56,0.00,NA,NA,-99.99,wxupload 3.4,2013-01-26 12:44:00,
2013-01-26 07:51:00,19.6,5.9,32.16,SSE,153,0.0,0.0,55,0.00,NA,NA,-99.99,wxupload 3.4,2013-01-26 12:51:00,
2013-01-26 07:57:00,19.6,6.3,32.16,SSE,153,0.0,0.0,56,0.00,NA,NA,-99.99,wxupload 3.4,2013-01-26 12:57:00,
2013-01-26 08:02:00,19.8,6.5,32.16,SSE,153,0.0,0.0,56,0.00,NA,NA,-99.99,wxupload 3.4,2013-01-26 13:02:00,
2013-01-26 08:08:00,19.9,6.6,32.16,SSE,153,0.0,0.0,56,0.00,NA,NA,-99.99,wxupload 3.4,2013-01-26 13:08:00,
2013-01-26 08:14:00,20.1,6.8,32.16,SSE,153,0.0,0.0,56,0.00,NA,NA,-99.99,wxupload 3.4,2013-01-26 13:14:00,
2013-01-26 08:21:00,20.3,7.0,32.16,SSE,153,0.0,0.0,56,0.00,NA,NA,-99.99,wxupload 3.4,2013-01-26 13:21:00,
2013-01-26 08:26:00,20.5,7.2,32.16,SSE,153,0.0,0.0,56,0.00,NA,NA,-99.99,wxupload 3.4,2013-01-26 13:26:00,
2013-01-26 08:32:00,20.7,7.3,32.16,SSE,153,0.0,0.0,56,0.00,NA,NA,-99.99,wxupload 3.4,2013-01-26 13:32:00,
2013-01-26 08:38:00,20.8,7.5,32.16,SSE,153,0.0,0.0,56,0.00,NA,NA,-99.99,wxupload 3.4,2013-01-26 13:38:00,
2013-01-26 08:45:00,21.2,8.2,32.16,SSE,153,0.0,0.0,57,0.00,NA,NA,-99.99,wxupload 3.4,2013-01-26 13:45:00,
2013-01-26 08:50:00,21.4,8.0,32.16,SSE,153,0.0,0.0,56,0.00,NA,NA,-99.99,wxupload 3.4,2013-01-26 13:50:00,
2013-01-26 08:56:00,21.6,8.2,32.16,SSE,153,0.0,0.0,56,0.00,NA,NA,-99.99,wxupload 3.4,2013-01-26 13:56:00,
2013-01-26 09:02:00,21.9,8.9,32.16,SSE,153,0.0,0.0,57,0.00,NA,NA,-99.99,wxupload 3.4,2013-01-26 14:02:00,
2013-01-26 09:09:00,22.1,9.1,32.16,SSE,153,0.0,0.0,57,0.00,NA,NA,-99.99,wxupload 3.4,2013-01-26 14:09:00,
2013-01-26 09:15:00,22.8,9.8,32.16,SSE,153,0.0,0.0,57,0.00,NA,NA,-99.99,wxupload 3.4,2013-01-26 14:15:00,
2013-01-26 09:20:00,23.2,10.1,32.16,SSE,153,0.0,0.0,57,0.00,NA,NA,-99.99,wxupload 3.4,2013-01-26 14:20:00,
2013-01-26 09:26:00,23.5,10.4,32.16,SSE,153,0.0,0.0,57,0.00,NA,NA,-99.99,wxupload 3.4,2013-01-26 14:26:00,
2013-01-26 09:33:00,24.1,11.0,32.16,SSE,153,0.0,0.0,57,0.00,NA,NA,-99.99,wxupload 3.4,2013-01-26 14:33:00,
2013-01-26 09:38:00,24.4,11.3,32.16,SSE,153,0.0,0.0,57,0.00,NA,NA,-99.99,wxupload 3.4,2013-01-26 14:38:00,
2013-01-26 09:44:00,24.8,11.6,32.16,SSE,153,0.0,0.0,57,0.00,NA,NA,-99.99,wxupload 3.4,2013-01-26 14:44:00,
2013-01-26 09:50:00,25.3,12.1,32.19,SSE,153,0.0,0.0,57,0.00,NA,NA,-99.99,wxupload 3.4,2013-01-26 14:50:00,
2013-01-26 09:57:00,25.7,12.5,32.19,SSE,153,0.0,0.0,57,0.00,NA,NA,-99.99,wxupload 3.4,2013-01-26 14:57:00,
2013-01-26 10:03:00,26.2,13.0,32.19,SSE,153,0.0,0.0,57,0.00,NA,NA,-99.99,wxupload 3.4,2013-01-26 15:03:00,
2013-01-26 10:08:00,26.8,13.1,32.19,SSE,153,0.0,0.0,56,0.00,NA,NA,-99.99,wxupload 3.4,2013-01-26 15:08:00,
2013-01-26 10:14:00,27.0,13.3,32.19,SSE,153,0.0,0.0,56,0.00,NA,NA,-99.99,wxupload 3.4,2013-01-26 15:14:00,
2013-01-26 10:21:00,27.5,13.8,32.19,SSE,153,0.0,0.0,56,0.00,NA,NA,-99.99,wxupload 3.4,2013-01-26 15:21:00,
2013-01-26 10:27:00,27.9,14.1,32.19,SSE,153,0.0,0.0,56,0.00,NA,NA,-99.99,wxupload 3.4,2013-01-26 15:27:00,
2013-01-26 10:32:00,28.0,13.9,32.19,SSE,153,0.0,0.0,55,0.00,NA,NA,-99.99,wxupload 3.4,2013-01-26 15:32:00,
2013-01-26 10:38:00,28.2,14.0,32.19,SSE,153,0.0,0.0,55,0.00,NA,NA,-99.99,wxupload 3.4,2013-01-26 15:38:00,
2013-01-26 10:45:00,28.4,14.2,32.19,SSE,153,0.0,0.0,55,0.00,NA,NA,-99.99,wxupload 3.4,2013-01-26 15:45:00,
2013-01-26 10:51:00,28.4,13.8,32.19,SSE,153,0.0,0.0,54,0.00,NA,NA,-99.99,wxupload 3.4,2013-01-26 15:51:00,
2013-01-26 10:56:00,28.4,13.8,32.19,SSE,153,0.0,0.0,54,0.00,NA,NA,-99.99,wxupload 3.4,2013-01-26 15:56:00,
2013-01-26 11:02:00,28.8,13.7,32.19,SSE,153,0.0,0.0,53,0.00,NA,NA,-99.99,wxupload 3.4,2013-01-26 16:02:00,
2013-01-26 11:09:00,29.1,14.0,32.19,SSE,153,0.0,0.0,53,0.00,NA,NA,-99.99,wxupload 3.4,2013-01-26 16:09:00,
2013-01-26 11:15:00,29.1,14.0,32.19,SSE,153,0.0,0.0,53,0.00,NA,NA,-99.99,wxupload 3.4,2013-01-26 16:15:00,
2013-01-26 11:20:00,29.5,14.4,32.19,SSE,153,0.0,0.0,53,0.00,NA,NA,-99.99,wxupload 3.4,2013-01-26 16:20:00,
2013-01-26 11:26:00,29.7,14.6,32.19,SSE,153,0.0,0.0,53,0.00,NA,NA,-99.99,wxupload 3.4,2013-01-26 16:26:00,
2013-01-26 11:32:00,30.0,14.9,32.19,SSE,153,0.0,0.0,53,0.00,NA,NA,-99.99,wxupload 3.4,2013-01-26 16:32:00,
2013-01-26 11:39:00,30.2,14.6,32.19,SSE,153,0.0,0.0,52,0.00,NA,NA,-99.99,wxupload 3.4,2013-01-26 16:39:00,
2013-01-26 11:44:00,30.4,14.8,32.19,SSE,153,0.0,0.0,52,0.00,NA,NA,-99.99,wxupload 3.4,2013-01-26 16:44:00,
2013-01-26 11:50:00,31.1,15.5,32.19,SSE,153,0.0,0.0,52,0.00,NA,NA,-99.99,wxupload 3.4,2013-01-26 16:50:00,
2013-01-26 11:56:00,31.5,15.8,32.19,SSE,153,0.0,0.0,52,0.00,NA,NA,-99.99,wxupload 3.4,2013-01-26 16:56:00,
2013-01-26 12:03:00,31.6,16.0,32.19,SSE,153,0.0,0.0,52,0.00,NA,NA,-99.99,wxupload 3.4,2013-01-26 17:03:00,
2013-01-26 12:08:00,31.6,16.0,32.19,SSE,153,0.0,0.0,52,0.00,NA,NA,-99.99,wxupload 3.4,2013-01-26 17:08:00,
2013-01-26 12:14:00,31.8,16.1,32.19,SSE,153,0.0,0.0,52,0.00,NA,NA,-99.99,wxupload 3.4,2013-01-26 17:14:00,
2013-01-26 12:20:00,32.4,16.6,32.19,SSE,153,0.0,0.0,52,0.00,NA,NA,-99.99,wxupload 3.4,2013-01-26 17:20:00,
2013-01-26 12:27:00,32.5,16.8,32.19,SSE,153,0.0,0.0,52,0.00,NA,NA,-99.99,wxupload 3.4,2013-01-26 17:27:00,
2013-01-26 12:32:00,32.7,17.0,32.16,SSE,153,0.0,0.0,52,0.00,NA,NA,-99.99,wxupload 3.4,2013-01-26 17:32:00,
2013-01-26 12:38:00,32.7,16.5,32.16,SSE,153,0.0,0.0,51,0.00,NA,NA,-99.99,wxupload 3.4,2013-01-26 17:38:00,
2013-01-26 12:44:00,32.7,16.5,32.16,SSE,153,0.0,0.0,51,0.00,NA,NA,-99.99,wxupload 3.4,2013-01-26 17:44:00,
2013-01-26 12:51:00,33.1,16.9,32.16,SSE,153,0.0,0.0,51,0.00,NA,NA,-99.99,wxupload 3.4,2013-01-26 17:51:00,
2013-01-26 12:57:00,33.1,16.9,32.16,SSE,153,0.0,0.0,51,0.00,NA,NA,-99.99,wxupload 3.4,2013-01-26 17:57:00,
2013-01-26 13:02:00,33.4,17.2,32.16,SSE,153,0.0,0.0,51,0.00,NA,NA,-99.99,wxupload 3.4,2013-01-26 18:02:00,
2013-01-26 13:08:00,33.3,16.6,32.16,SSE,153,0.0,0.0,50,0.00,NA,NA,-99.99,wxupload 3.4,2013-01-26 18:08:00,
2013-01-26 13:15:00,32.9,16.2,32.16,SSE,153,0.0,0.0,50,0.00,NA,NA,-99.99,wxupload 3.4,2013-01-26 18:15:00,
2013-01-26 13:21:00,32.9,16.2,32.16,SSE,153,0.0,0.0,50,0.00,NA,NA,-99.99,wxupload 3.4,2013-01-26 18:21:00,
2013-01-26 13:26:00,32.7,16.1,32.16,SSE,153,0.0,0.0,50,0.00,NA,NA,-99.99,wxupload 3.4,2013-01-26 18:26:00,
2013-01-26 13:32:00,32.7,16.1,32.16,SSE,153,0.0,0.0,50,0.00,NA,NA,-99.99,wxupload 3.4,2013-01-26 18:32:00,
2013-01-26 13:39:00,32.9,16.2,32.16,SSE,153,0.0,0.0,50,0.00,NA,NA,-99.99,wxupload 3.4,2013-01-26 18:39:00,
2013-01-26 13:45:00,33.1,16.4,32.16,SSE,153,0.0,0.0,50,0.00,NA,NA,-99.99,wxupload 3.4,2013-01-26 18:45:00,
2013-01-26 13:50:00,33.3,16.6,32.19,SSE,153,0.0,0.0,50,0.00,NA,NA,-99.99,wxupload 3.4,2013-01-26 18:50:00,
2013-01-26 13:56:00,33.4,16.7,32.19,SSE,153,0.0,0.0,50,0.00,NA,NA,-99.99,wxupload 3.4,2013-01-26 18:56:00,
2013-01-26 14:02:00,33.3,16.1,32.19,SSE,147,0.0,0.0,49,0.00,NA,NA,-99.99,wxupload 3.4,2013-01-26 19:02:00,
2013-01-26 14:09:00,33.6,16.0,32.19,NE,53,0.0,2.0,48,0.00,NA,NA,-99.99,wxupload 3.4,2013-01-26 19:09:00,
2013-01-26 14:14:00,33.4,13.8,32.19,NNE,21,0.0,4.0,44,0.00,NA,NA,-99.99,wxupload 3.4,2013-01-26 19:14:00,
2013-01-26 14:20:00,33.3,13.1,32.19,ENE,58,4.0,6.0,43,0.00,NA,NA,-99.99,wxupload 3.4,2013-01-26 19:20:00,
2013-01-26 14:26:00,33.1,13.4,32.19,NNW,339,0.0,0.0,44,0.00,NA,NA,-99.99,wxupload 3.4,2013-01-26 19:26:00,
2013-01-26 14:33:00,33.4,14.3,32.19,North,10,0.0,0.0,45,0.00,NA,NA,-99.99,wxupload 3.4,2013-01-26 19:33:00,
2013-01-26 14:38:00,33.4,14.3,32.19,NNE,17,0.0,0.0,45,0.00,NA,NA,-99.99,wxupload 3.4,2013-01-26 19:38:00,
2013-01-26 14:44:00,33.3,14.1,32.19,WNW,288,0.0,0.0,45,0.00,NA,NA,-99.99,wxupload 3.4,2013-01-26 19:44:00,
2013-01-26 14:50:00,33.3,13.6,32.19,NW,323,3.0,5.0,44,0.00,NA,NA,-99.99,wxupload 3.4,2013-01-26 19:50:00,
2013-01-26 14:57:00,33.3,13.6,32.19,NW,313,0.0,3.0,44,0.00,NA,NA,-99.99,wxupload 3.4,2013-01-26 19:57:00,
2013-01-26 15:03:00,33.3,13.6,32.19,NNW,343,0.0,0.0,44,0.00,NA,NA,-99.99,wxupload 3.4,2013-01-26 20:03:00,
2013-01-26 15:08:00,33.3,13.6,32.19,NE,42,0.0,2.0,44,0.00,NA,NA,-99.99,wxupload 3.4,2013-01-26 20:08:00,
2013-01-26 15:14:00,33.3,13.6,32.19,NNE,23,0.0,0.0,44,0.00,NA,NA,-99.99,wxupload 3.4,2013-01-26 20:14:00,
2013-01-26 15:21:00,33.1,13.4,32.19,NNW,335,0.0,0.0,44,0.00,NA,NA,-99.99,wxupload 3.4,2013-01-26 20:21:00,
2013-01-26 15:27:00,32.9,13.8,32.19,NNE,14,2.0,4.0,45,0.00,NA,NA,-99.99,wxupload 3.4,2013-01-26 20:27:00,
2013-01-26 15:32:00,32.7,14.1,32.22,North,4,0.0,0.0,46,0.00,NA,NA,-99.99,wxupload 3.4,2013-01-26 20:32:00,
2013-01-26 15:38:00,32.5,14.0,32.22,NW,307,0.0,0.0,46,0.00,NA,NA,-99.99,wxupload 3.4,2013-01-26 20:38:00,
2013-01-26 15:45:00,32.5,14.0,32.22,NE,38,0.0,0.0,46,0.00,NA,NA,-99.99,wxupload 3.4,2013-01-26 20:45:00,
2013-01-26 15:51:00,32.4,13.8,32.22,WNW,285,0.0,2.0,46,0.00,NA,NA,-99.99,wxupload 3.4,2013-01-26 20:51:00,
2013-01-26 15:56:00,32.4,13.8,32.22,NNW,335,0.0,0.0,46,0.00,NA,NA,-99.99,wxupload 3.4,2013-01-26 20:56:00,
2013-01-26 16:02:00,32.4,13.8,32.22,WNW,286,0.0,0.0,46,0.00,NA,NA,-99.99,wxupload 3.4,2013-01-26 21:02:00,
2013-01-26 16:08:00,32.2,13.1,32.22,NNE,30,0.0,0.0,45,0.00,NA,NA,-99.99,wxupload 3.4,2013-01-26 21:08:00,
2013-01-26 16:15:00,32.2,13.1,32.22,WSW,255,0.0,0.0,45,0.00,NA,NA,-99.99,wxupload 3.4,2013-01-26 21:15:00,
2013-01-26 16:20:00,32.2,13.1,32.22,North,0,0.0,0.0,45,0.00,NA,NA,-99.99,wxupload 3.4,2013-01-26 21:20:00,
2013-01-26 16:26:00,32.0,13.0,32.22,WNW,298,0.0,0.0,45,0.00,NA,NA,-99.99,wxupload 3.4,2013-01-26 21:26:00,
2013-01-26 16:32:00,31.8,12.3,32.22,NNE,20,0.0,0.0,44,0.00,NA,NA,-99.99,wxupload 3.4,2013-01-26 21:32:00,
2013-01-26 16:39:00,31.6,11.1,32.22,East,99,0.0,0.0,42,0.00,NA,NA,-99.99,wxupload 3.4,2013-01-26 21:39:00,
2013-01-26 16:45:00,31.6,11.6,32.22,North,353,0.0,0.0,43,0.00,NA,NA,-99.99,wxupload 3.4,2013-01-26 21:45:00,
2013-01-26 16:50:00,31.5,12.0,32.22,NE,34,0.0,3.0,44,0.00,NA,NA,-99.99,wxupload 3.4,2013-01-26 21:50:00,
2013-01-26 16:56:00,31.1,11.6,32.22,North,6,0.0,0.0,44,0.00,NA,NA,-99.99,wxupload 3.4,2013-01-26 21:56:00,
2013-01-26 17:03:00,31.1,10.6,32.25,NE,41,2.0,4.0,42,0.00,NA,NA,-99.99,wxupload 3.4,2013-01-26 22:03:00,
2013-01-26 17:09:00,30.9,10.4,32.25,North,0,0.0,5.0,42,0.00,NA,NA,-99.99,wxupload 3.4,2013-01-26 22:09:00,
2013-01-26 17:14:00,30.9,10.4,32.25,NE,54,0.0,0.0,42,0.00,NA,NA,-99.99,wxupload 3.4,2013-01-26 22:14:00,
2013-01-26 17:20:00,30.7,10.2,32.25,NE,51,0.0,0.0,42,0.00,NA,NA,-99.99,wxupload 3.4,2013-01-26 22:20:00,
2013-01-26 17:27:00,30.6,10.6,32.25,ESE,111,0.0,0.0,43,0.00,NA,NA,-99.99,wxupload 3.4,2013-01-26 22:27:00,
2013-01-26 17:33:00,30.4,10.4,32.25,WNW,286,0.0,5.0,43,0.00,NA,NA,-99.99,wxupload 3.4,2013-01-26 22:33:00,
2013-01-26 17:38:00,30.2,10.3,32.25,North,357,0.0,0.0,43,0.00,NA,NA,-99.99,wxupload 3.4,2013-01-26 22:38:00,
2013-01-26 17:44:00,30.2,10.3,32.25,North,0,0.0,0.0,43,0.00,NA,NA,-99.99,wxupload 3.4,2013-01-26 22:44:00,
2013-01-26 17:50:00,30.2,10.3,32.25,NNE,14,0.0,0.0,43,0.00,NA,NA,-99.99,wxupload 3.4,2013-01-26 22:50:00,
2013-01-26 17:57:00,30.0,10.1,32.25,NNE,15,0.0,0.0,43,0.00,NA,NA,-99.99,wxupload 3.4,2013-01-26 22:57:00,
2013-01-26 18:02:00,30.0,10.1,32.25,NE,38,0.0,0.0,43,0.00,NA,NA,-99.99,wxupload 3.4,2013-01-26 23:02:00,
2013-01-26 18:08:00,30.0,10.1,32.25,East,90,0.0,0.0,43,0.00,NA,NA,-99.99,wxupload 3.4,2013-01-26 23:08:00,
2013-01-26 18:14:00,30.0,10.1,32.25,East,90,0.0,0.0,43,0.00,NA,NA,-99.99,wxupload 3.4,2013-01-26 23:14:00,
2013-01-26 18:21:00,29.8,9.9,32.28,NE,44,0.0,4.0,43,0.00,NA,NA,-99.99,wxupload 3.4,2013-01-26 23:21:00,
2013-01-26 18:27:00,29.8,9.4,32.28,WSW,258,0.0,2.0,42,0.00,NA,NA,-99.99,wxupload 3.4,2013-01-26 23:27:00,
2013-01-26 18:32:00,30.0,9.6,32.28,NE,35,0.0,0.0,42,0.00,NA,NA,-99.99,wxupload 3.4,2013-01-26 23:32:00,
2013-01-26 18:38:00,30.0,10.1,32.28,North,353,0.0,0.0,43,0.00,NA,NA,-99.99,wxupload 3.4,2013-01-26 23:38:00,
2013-01-26 18:45:00,30.0,9.6,32.28,NNW,343,0.0,3.0,42,0.00,NA,NA,-99.99,wxupload 3.4,2013-01-26 23:45:00,
2013-01-26 18:51:00,29.7,9.2,32.28,North,353,0.0,6.0,42,0.00,NA,NA,-99.99,wxupload 3.4,2013-01-26 23:51:00,
2013-01-26 18:56:00,29.5,9.6,32.28,North,0,0.0,0.0,43,0.00,NA,NA,-99.99,wxupload 3.4,2013-01-26 23:56:00,
2013-01-26 19:02:00,29.3,9.4,32.28,NE,45,0.0,5.0,43,0.00,NA,NA,-99.99,wxupload 3.4,2013-01-27 00:02:00,
2013-01-26 19:09:00,29.1,9.3,32.28,NNW,343,0.0,2.0,43,0.00,NA,NA,-99.99,wxupload 3.4,2013-01-27 00:09:00,
2013-01-26 19:15:00,29.3,9.4,32.28,NW,319,0.0,0.0,43,0.00,NA,NA,-99.99,wxupload 3.4,2013-01-27 00:15:00,
2013-01-26 19:20:00,29.5,9.1,32.28,North,4,0.0,0.0,42,0.00,NA,NA,-99.99,wxupload 3.4,2013-01-27 00:20:00,
2013-01-26 19:26:00,29.5,9.1,32.28,North,4,0.0,0.0,42,0.00,NA,NA,-99.99,wxupload 3.4,2013-01-27 00:26:00,
2013-01-26 19:32:00,29.5,9.1,32.28,East,80,0.0,0.0,42,0.00,NA,NA,-99.99,wxupload 3.4,2013-01-27 00:32:00,
2013-01-26 19:39:00,29.5,9.1,32.28,East,80,0.0,0.0,42,0.00,NA,NA,-99.99,wxupload 3.4,2013-01-27 00:39:00,
2013-01-26 19:45:00,29.5,9.1,32.28,ENE,61,0.0,0.0,42,0.00,NA,NA,-99.99,wxupload 3.4,2013-01-27 00:45:00,
2013-01-26 19:50:00,29.5,9.1,32.31,NNW,331,0.0,0.0,42,0.00,NA,NA,-99.99,wxupload 3.4,2013-01-27 00:50:00,
2013-01-26 19:56:00,29.5,9.1,32.31,North,357,0.0,0.0,42,0.00,NA,NA,-99.99,wxupload 3.4,2013-01-27 00:56:00,
2013-01-26 20:03:00,29.5,9.1,32.31,North,353,0.0,0.0,42,0.00,NA,NA,-99.99,wxupload 3.4,2013-01-27 01:03:00,
2013-01-26 20:09:00,29.3,8.9,32.31,NE,34,0.0,0.0,42,0.00,NA,NA,-99.99,wxupload 3.4,2013-01-27 01:09:00,
2013-01-26 20:14:00,29.3,8.9,32.31,NE,34,0.0,0.0,42,0.00,NA,NA,-99.99,wxupload 3.4,2013-01-27 01:14:00,
2013-01-26 20:20:00,29.3,9.4,32.31,North,7,0.0,0.0,43,0.00,NA,NA,-99.99,wxupload 3.4,2013-01-27 01:20:00,
2013-01-26 20:27:00,29.1,9.3,32.31,North,349,0.0,0.0,43,0.00,NA,NA,-99.99,wxupload 3.4,2013-01-27 01:27:00,
2013-01-26 20:33:00,29.1,9.3,32.31,North,349,0.0,0.0,43,0.00,NA,NA,-99.99,wxupload 3.4,2013-01-27 01:33:00,
2013-01-26 20:38:00,28.9,8.6,32.31,NNE,19,3.0,6.0,42,0.00,NA,NA,-99.99,wxupload 3.4,2013-01-27 01:38:00,
2013-01-26 20:44:00,29.1,8.2,32.31,NNW,335,0.0,0.0,41,0.00,NA,NA,-99.99,wxupload 3.4,2013-01-27 01:44:00,
2013-01-26 20:50:00,29.3,8.4,32.34,North,0,0.0,3.0,41,0.00,NA,NA,-99.99,wxupload 3.4,2013-01-27 01:50:00,
2013-01-26 20:57:00,29.1,8.2,32.34,NW,320,0.0,0.0,41,0.00,NA,NA,-99.99,wxupload 3.4,2013-01-27 01:57:00,
2013-01-26 21:03:00,29.1,8.2,32.34,NNE,24,0.0,4.0,41,0.00,NA,NA,-99.99,wxupload 3.4,2013-01-27 02:03:00,
2013-01-26 21:08:00,29.3,8.4,32.34,NNE,32,0.0,0.0,41,0.00,NA,NA,-99.99,wxupload 3.4,2013-01-27 02:08:00,
2013-01-26 21:14:00,29.1,7.7,32.34,NE,39,0.0,0.0,40,0.00,NA,NA,-99.99,wxupload 3.4,2013-01-27 02:14:00,
2013-01-26 21:21:00,29.1,7.7,32.34,NNW,330,0.0,0.0,40,0.00,NA,NA,-99.99,wxupload 3.4,2013-01-27 02:21:00,
2013-01-26 21:27:00,28.9,7.5,32.34,NE,46,0.0,3.0,40,0.00,NA,NA,-99.99,wxupload 3.4,2013-01-27 02:27:00,
2013-01-26 21:32:00,28.9,7.5,32.34,NNE,21,0.0,0.0,40,0.00,NA,NA,-99.99,wxupload 3.4,2013-01-27 02:32:00,
2013-01-26 21:38:00,28.9,6.3,32.34,NW,304,0.0,4.0,38,0.00,NA,NA,-99.99,wxupload 3.4,2013-01-27 02:38:00,
2013-01-26 21:45:00,28.6,6.6,32.34,North,353,2.0,2.0,39,0.00,NA,NA,-99.99,wxupload 3.4,2013-01-27 02:45:00,
2013-01-26 21:51:00,28.6,6.6,32.37,NW,309,0.0,0.0,39,0.00,NA,NA,-99.99,wxupload 3.4,2013-01-27 02:51:00,
2013-01-26 21:56:00,28.6,4.2,32.37,North,1,0.0,7.0,35,0.00,NA,NA,-99.99,wxupload 3.4,2013-01-27 02:56:00,
2013-01-26 22:02:00,28.6,4.2,32.37,NE,49,0.0,3.0,35,0.00,NA,NA,-99.99,wxupload 3.4,2013-01-27 03:02:00,
2013-01-26 22:08:00,28.6,4.2,32.37,ENE,57,0.0,0.0,35,0.00,NA,NA,-99.99,wxupload 3.4,2013-01-27 03:08:00,
2013-01-26 22:15:00,28.6,3.6,32.37,NE,52,0.0,0.0,34,0.00,NA,NA,-99.99,wxupload 3.4,2013-01-27 03:15:00,
2013-01-26 22:21:00,28.4,3.4,32.37,NE,47,0.0,3.0,34,0.00,NA,NA,-99.99,wxupload 3.4,2013-01-27 03:21:00,
2013-01-26 22:26:00,28.2,3.2,32.37,NE,35,0.0,4.0,34,0.00,NA,NA,-99.99,wxupload 3.4,2013-01-27 03:26:00,
2013-01-26 22:32:00,28.0,3.1,32.37,NNW,346,0.0,0.0,34,0.00,NA,NA,-99.99,wxupload 3.4,2013-01-27 03:32:00,
2013-01-26 22:39:00,27.9,2.9,32.37,NNW,334,0.0,0.0,34,0.00,NA,NA,-99.99,wxupload 3.4,2013-01-27 03:39:00,
2013-01-26 22:45:00,27.9,2.9,32.37,North,10,0.0,0.0,34,0.00,NA,NA,-99.99,wxupload 3.4,2013-01-27 03:45:00,
2013-01-26 22:51:00,27.7,3.4,32.37,South,178,0.0,5.0,35,0.00,NA,NA,-99.99,wxupload 3.4,2013-01-27 03:51:00,
2013-01-26 22:56:00,27.7,2.7,32.37,NNE,29,0.0,3.0,34,0.00,NA,NA,-99.99,wxupload 3.4,2013-01-27 03:56:00,
2013-01-26 23:02:00,27.7,2.7,32.40,NNE,15,0.0,0.0,34,0.00,NA,NA,-99.99,wxupload 3.4,2013-01-27 04:02:00,
2013-01-26 23:09:00,27.5,2.6,32.40,ENE,58,0.0,0.0,34,0.00,NA,NA,-99.99,wxupload 3.4,2013-01-27 04:09:00,
2013-01-26 23:15:00,27.3,2.4,32.40,ENE,58,0.0,0.0,34,0.00,NA,NA,-99.99,wxupload 3.4,2013-01-27 04:15:00,
2013-01-26 23:20:00,27.1,2.9,32.40,ENE,58,0.0,0.0,35,0.00,NA,NA,-99.99,wxupload 3.4,2013-01-27 04:20:00,
2013-01-26 23:26:00,27.1,2.9,32.40,NE,55,0.0,0.0,35,0.00,NA,NA,-99.99,wxupload 3.4,2013-01-27 04:26:00,
2013-01-26 23:33:00,27.0,2.7,32.40,North,357,0.0,0.0,35,0.00,NA,NA,-99.99,wxupload 3.4,2013-01-27 04:33:00,
2013-01-26 23:39:00,27.0,2.7,32.40,NW,320,0.0,3.0,35,0.00,NA,NA,-99.99,wxupload 3.4,2013-01-27 04:39:00,
2013-01-26 23:45:00,27.0,2.7,32.40,North,0,0.0,4.0,35,0.00,NA,NA,-99.99,wxupload 3.4,2013-01-27 04:45:00,
2013-01-26 23:50:00,27.1,2.9,32.43,North,353,0.0,0.0,35,0.00,NA,NA,-99.99,wxupload 3.4,2013-01-27 04:50:00,
2013-01-26 23:56:00,27.0,2.7,32.43,NW,304,0.0,0.0,35,0.00,NA,NA,-99.99,wxupload 3.4,2013-01-27 04:56:00,